Imagination — C6FN2 — position and weather

sailwx.info

Track history (hours):
 
Tides and Currents Weather Stations Pressure Air Temp Water Temp Dewpoint Dewpoint Depression Visibility Wind Speed Wind Dir Waves Ship Positions

Imagination

Operator: Carnival Cruise Lines

Last reported at 2019-Feb-23 10:52 UTC. Time now 2019-Feb-23 17:37 UTC.
Position N 32°03' W 117°17'.

Type: Ship. MMSI: 309933000.

Date/timePositionNaut miles runAvg speedWind from/ knotsBaromVisibWave heightAir tempDewpointWater temp
2019-Feb-23 10:52N 32°03' W 117°17'410.0
2019-Feb-23 10:30N 32°05' W 117°20'510.0
2019-Feb-23 10:00N 32°09' W 117°24'5 9.7
2019-Feb-23 09:30N 32°12' W 117°29'5 9.5
2019-Feb-23 09:00N 32°15' W 117°33'5 9.4
2019-Feb-23 08:30N 32°18' W 117°37'4 8.9
2019-Feb-23 08:00N 32°22' W 117°39'5 9.3
2019-Feb-23 07:30N 32°26' W 117°42'5 9.2
2019-Feb-23 07:01N 32°30' W 117°45'510.4
2019-Feb-23 06:30N 32°35' W 117°48'4 8.2
2019-Feb-23 06:00N 32°38' W 117°50'4 7.2
2019-Feb-23 05:30N 32°40' W 117°53'4 7.3
2019-Feb-23 05:00N 32°42' W 117°57'4 7.1
2019-Feb-23 04:30N 32°45' W 117°59'4 8.7
2019-Feb-23 04:00N 32°50' W 117°59'4 7.9
2019-Feb-23 03:31N 32°52' W 117°55'4 7.4
2019-Feb-23 03:00N 32°51' W 117°51'4 8.0
2019-Feb-23 02:30N 32°49' W 117°46'4 7.9
2019-Feb-23 02:01N 32°47' W 117°43'4 8.2
2019-Feb-23 01:31N 32°45' W 117°38'5 9.8
2019-Feb-23 01:01N 32°49' W 117°41'816.8
2019-Feb-23 00:30N 32°54' W 117°49'4 8.4
2019-Feb-23 00:00N 32°57' W 117°53'4 7.8
2019-Feb-22 23:30N 33°01' W 117°53'3 6.7
2019-Feb-22 23:00N 33°04' W 117°55'4 8.6
2019-Feb-22 22:30N 33°04' W 118°00'4 8.4
2019-Feb-22 22:00N 33°04' W 118°05'3 6.6
2019-Feb-22 21:30N 33°02' W 118°08'4 7.7
2019-Feb-22 21:00N 32°58' W 118°07'4 7.6
2019-Feb-22 20:30N 32°55' W 118°05'4 7.8
2019-Feb-22 20:00N 32°51' W 118°03'4 7.8
2019-Feb-22 19:30N 32°48' W 118°01'4 7.8
2019-Feb-22 19:00N 32°44' W 117°59'4 7.8
2019-Feb-22 18:30N 32°41' W 117°56'4 8.1
2019-Feb-22 18:00N 32°38' W 117°53'4 8.0
2019-Feb-22 17:30N 32°35' W 117°50'4 8.1
2019-Feb-22 17:00N 32°32' W 117°46'4 8.0
2019-Feb-22 16:30N 32°29' W 117°44'4 8.0
2019-Feb-22 16:00N 32°25' W 117°42'4 7.7
2019-Feb-22 15:30N 32°22' W 117°40'3 6.9
2019-Feb-22 15:00N 32°19' W 117°37'3 5.0
2019-Feb-22 14:30N 32°22' W 117°37'4 7.4
2019-Feb-22 14:00N 32°25' W 117°40'4 7.4
2019-Feb-22 13:30N 32°27' W 117°43'4 7.4
2019-Feb-22 13:00N 32°30' W 117°46'3 6.2
2019-Feb-22 12:30N 32°33' W 117°47'3 6.2
2019-Feb-22 12:00N 32°36' W 117°47'4 7.6
2019-Feb-22 11:30N 32°39' W 117°49'4 7.5
2019-Feb-22 11:00N 32°43' W 117°50'4 7.3
2019-Feb-22 10:30N 32°46' W 117°51'4 7.2
2019-Feb-22 10:00N 32°50' W 117°52'4 7.2
2019-Feb-22 09:30N 32°52' W 117°55'4 7.3
2019-Feb-22 09:00N 32°56' W 117°56'4 7.4
2019-Feb-22 08:30N 32°60' W 117°57'4 7.4
2019-Feb-22 08:00N 33°03' W 117°59'4 7.4
2019-Feb-22 07:30N 33°06' W 118°00'4 7.8
2019-Feb-22 07:00N 33°10' W 118°02'4 8.0
2019-Feb-22 06:30N 33°14' W 118°04'4 8.3
2019-Feb-22 06:00N 33°18' W 118°06'4 8.5
2019-Feb-22 05:30N 33°22' W 118°07'4 8.7
2019-Feb-22 05:00N 33°26' W 118°09'4 8.9
2019-Feb-22 04:30N 33°30' W 118°11'4 8.9
2019-Feb-22 04:00N 33°34' W 118°13'4 8.7
2019-Feb-22 03:30N 33°38' W 118°12'4 8.7
2019-Feb-22 03:00N 33°43' W 118°11'2 4.4
2019-Feb-22 02:29N 33°45' W 118°11'0 0.0
2019-Feb-22 01:56N 33°45' W 118°11'0 0.0
2019-Feb-22 01:29N 33°45' W 118°11'0 0.0
2019-Feb-22 00:58N 33°45' W 118°11'0 0.0
2019-Feb-22 00:28N 33°45' W 118°11'0 0.0
2019-Feb-21 23:43N 33°45' W 118°11'0 0.0
2019-Feb-21 23:22N 33°45' W 118°11'0 0.0
2019-Feb-21 22:58N 33°45' W 118°11'0 0.0
2019-Feb-21 22:27N 33°45' W 118°11'0 0.0
2019-Feb-21 22:00N 33°45' W 118°11'0 0.0
2019-Feb-21 21:27N 33°45' W 118°11'0 0.0
2019-Feb-21 20:57N 33°45' W 118°11'0 0.0
2019-Feb-21 20:30N 33°45' W 118°11'0 0.0
2019-Feb-21 19:59N 33°45' W 118°11'0 0.0
2019-Feb-21 19:29N 33°45' W 118°11'0 0.0
2019-Feb-21 18:59N 33°45' W 118°11'0 0.0
2019-Feb-21 18:29N 33°45' W 118°11'0 0.0
2019-Feb-21 17:46N 33°45' W 118°11'0 0.0
2019-Feb-21 17:28N 33°45' W 118°11'0 0.0
2019-Feb-21 16:55N 33°45' W 118°11'0 0.0
2019-Feb-21 16:28N 33°45' W 118°11'0 0.0
2019-Feb-21 15:58N 33°45' W 118°11'0 0.0
2019-Feb-21 15:30N 33°45' W 118°11'0 0.0
2019-Feb-21 15:00N 33°45' W 118°11'0 0.0
2019-Feb-21 14:30N 33°45' W 118°11'0 0.0
2019-Feb-21 14:00N 33°45' W 118°11'0 0.7
2019-Feb-21 13:30N 33°45' W 118°11'3 5.6
2019-Feb-21 13:01N 33°42' W 118°11'4 8.5
2019-Feb-21 12:30N 33°38' W 118°10'4 7.9
2019-Feb-21 12:00N 33°34' W 118°09'3 6.9
2019-Feb-21 11:30N 33°31' W 118°08'4 7.6
2019-Feb-21 11:01N 33°27' W 118°06'3 6.9
2019-Feb-21 10:30N 33°24' W 118°04'4 7.1
2019-Feb-21 10:00N 33°21' W 118°03'3 7.0
2019-Feb-21 09:31N 33°17' W 118°01'4 7.1
2019-Feb-21 09:00N 33°14' W 117°60'4 7.1
2019-Feb-21 08:30N 33°11' W 117°58'4 7.1
2019-Feb-21 08:00N 33°08' W 117°56'4 7.0
2019-Feb-21 07:30N 33°05' W 117°53'3 6.9
2019-Feb-21 07:00N 33°02' W 117°53'4 7.3
2019-Feb-21 06:30N 32°58' W 117°52'4 7.2
2019-Feb-21 06:00N 32°55' W 117°50'4 7.1
2019-Feb-21 05:30N 32°51' W 117°50'4 7.3
2019-Feb-21 05:00N 32°48' W 117°49'4 7.2
2019-Feb-21 04:31N 32°44' W 117°49'4 7.4
2019-Feb-21 03:59N 32°40' W 117°48'4 7.3
2019-Feb-21 03:30N 32°37' W 117°47'4 7.4
2019-Feb-21 03:00N 32°33' W 117°46'4 8.4
2019-Feb-21 02:30N 32°29' W 117°45'5 9.3
2019-Feb-21 02:00N 32°25' W 117°43'4 8.7
2019-Feb-21 01:30N 32°21' W 117°41'3 7.1
2019-Feb-21 01:00N 32°18' W 117°39'4 6.9
2019-Feb-21 00:28N 32°15' W 117°36'13 9.1
2019-Feb-20 23:00N 32°06' W 117°24'8 0.2 290 / 201024.210.8 12.0 3.816.0
2019-Feb-19 10:54N 32°01' W 117°17'3 8.7
2019-Feb-19 10:30N 32°04' W 117°20'4 8.8
2019-Feb-19 10:00N 32°06' W 117°24'4 8.7
2019-Feb-19 09:30N 32°09' W 117°27'4 8.8
2019-Feb-19 09:01N 32°12' W 117°31'4 8.8
2019-Feb-19 08:30N 32°15' W 117°35'5 9.4
2019-Feb-19 08:01N 32°19' W 117°39'5 9.2
2019-Feb-19 07:31N 32°23' W 117°42'5 9.4
2019-Feb-19 07:01N 32°27' W 117°44'510.3
2019-Feb-19 06:30N 32°32' W 117°46'510.1
2019-Feb-19 06:00N 32°37' W 117°48'5 9.2
2019-Feb-19 05:31N 32°41' W 117°49'5 9.3
2019-Feb-19 05:00N 32°46' W 117°49'5 9.5
2019-Feb-19 04:31N 32°50' W 117°49'5 9.6
2019-Feb-19 04:01N 32°55' W 117°52'5 9.6
2019-Feb-19 03:30N 32°59' W 117°55'510.0
2019-Feb-19 03:01N 33°03' W 117°59'510.4
2019-Feb-19 02:30N 33°07' W 118°03'510.6
2019-Feb-19 02:01N 33°11' W 118°07'510.1
2019-Feb-19 01:30N 33°15' W 118°11'5 9.9
2019-Feb-19 01:01N 33°18' W 118°15'4 8.6
2019-Feb-19 00:30N 33°21' W 118°18'0 0.6
2019-Feb-18 23:59N 33°21' W 118°19'0 0.0
2019-Feb-18 23:25N 33°21' W 118°19'0 0.0
2019-Feb-18 22:58N 33°21' W 118°19'0 0.0
2019-Feb-18 22:28N 33°21' W 118°19'0 0.0
2019-Feb-18 21:58N 33°21' W 118°19'0 0.0
2019-Feb-18 21:28N 33°21' W 118°19'0 0.0
2019-Feb-18 21:00N 33°21' W 118°19'0 0.0
2019-Feb-18 20:30N 33°21' W 118°19'0 0.0
2019-Feb-18 20:00N 33°21' W 118°19'0 0.0
2019-Feb-18 19:30N 33°21' W 118°19'0 0.1
2019-Feb-18 19:00N 33°21' W 118°19'0 0.2
2019-Feb-18 18:20N 33°21' W 118°19'0 0.1
2019-Feb-18 17:59N 33°21' W 118°19'0 0.0
2019-Feb-18 17:26N 33°21' W 118°19'0 0.0
2019-Feb-18 16:59N 33°21' W 118°19'0 0.0
2019-Feb-18 16:28N 33°21' W 118°19'0 0.1
2019-Feb-18 15:55N 33°21' W 118°19'0 0.2
2019-Feb-18 15:30N 33°21' W 118°19'0 0.1
2019-Feb-18 15:00N 33°21' W 118°19'3 5.0
2019-Feb-18 14:30N 33°19' W 118°17'3 7.0
2019-Feb-18 14:00N 33°16' W 118°15'3 6.6
2019-Feb-18 13:30N 33°13' W 118°13'3 6.9
2019-Feb-18 13:00N 33°10' W 118°11'3 6.9
2019-Feb-18 12:30N 33°07' W 118°09'3 6.8
2019-Feb-18 12:00N 33°04' W 118°06'3 6.8
2019-Feb-18 11:30N 33°02' W 118°04'3 6.9
2019-Feb-18 11:01N 32°59' W 118°02'5297.4
2019-Feb-18 11:00N 32°54' W 118°00'2 3.4 300 / 301024.210.8 14.0 8.515.0
2019-Feb-18 10:30N 32°56' W 118°00'3 6.8
2019-Feb-18 10:00N 32°53' W 117°58'3 5.8
2019-Feb-18 09:30N 32°52' W 117°55'3 6.7
2019-Feb-18 09:00N 32°55' W 117°53'4 8.0
2019-Feb-18 08:31N 32°59' W 117°54'4 8.2
2019-Feb-18 08:00N 33°03' W 117°55'4 8.4
2019-Feb-18 07:31N 33°06' W 117°57'4 8.3
2019-Feb-18 07:00N 33°10' W 118°00'4 8.6
2019-Feb-18 06:31N 33°13' W 118°03'5 9.3
2019-Feb-18 06:01N 33°17' W 118°07'5 9.6
2019-Feb-18 05:30N 33°21' W 118°10'5 9.8
2019-Feb-18 05:00N 33°25' W 118°13'5 9.6
2019-Feb-18 04:30N 33°29' W 118°17'5 9.6
2019-Feb-18 04:00N 33°33' W 118°18'510.9
2019-Feb-18 03:31N 33°38' W 118°13'510.5
2019-Feb-18 03:00N 33°43' W 118°11'3 4.0
2019-Feb-18 02:23N 33°45' W 118°11'0 0.0
2019-Feb-18 01:59N 33°45' W 118°11'0 0.0
2019-Feb-18 01:20N 33°45' W 118°11'0 0.0
2019-Feb-18 00:59N 33°45' W 118°11'0 0.0
2019-Feb-18 00:25N 33°45' W 118°11'0 0.0
2019-Feb-17 23:49N 33°45' W 118°11'0 0.0
2019-Feb-17 23:25N 33°45' W 118°11'0 0.0
2019-Feb-17 22:58N 33°45' W 118°11'0 0.0
2019-Feb-17 22:27N 33°45' W 118°11'0 0.0
2019-Feb-17 22:00N 33°45' W 118°11'0 0.0
2019-Feb-17 21:03N 33°45' W 118°11'0 0.0
2019-Feb-17 20:48N 33°45' W 118°11'0 0.0
2019-Feb-17 20:30N 33°45' W 118°11'0 0.0
2019-Feb-17 19:56N 33°45' W 118°11'0 0.0
2019-Feb-17 19:23N 33°45' W 118°11'0 0.0
2019-Feb-17 18:59N 33°45' W 118°11'0 0.0
2019-Feb-17 18:26N 33°45' W 118°11'0 0.0
2019-Feb-17 17:52N 33°45' W 118°11'0 0.0
2019-Feb-17 17:25N 33°45' W 118°11'0 0.0
2019-Feb-17 16:58N 33°45' W 118°11'0 0.0
2019-Feb-17 16:28N 33°45' W 118°11'0 0.0
2019-Feb-17 15:58N 33°45' W 118°11'0 0.0
2019-Feb-17 15:30N 33°45' W 118°11'0 0.0
2019-Feb-17 14:45N 33°45' W 118°11'0 0.0
2019-Feb-17 14:27N 33°45' W 118°11'0 0.3
2019-Feb-17 14:00N 33°45' W 118°11'2 3.1
2019-Feb-17 13:30N 33°43' W 118°11'5 9.2
2019-Feb-17 13:00N 33°39' W 118°10'611.9
2019-Feb-17 12:30N 33°33' W 118°09'5 9.9
2019-Feb-17 12:00N 33°28' W 118°07'714.4
2019-Feb-17 11:30N 33°22' W 118°04'714.7
2019-Feb-17 11:00N 33°15' W 118°00'714.5
2019-Feb-17 10:30N 33°08' W 117°57'714.0
2019-Feb-17 10:00N 33°01' W 117°55'713.8
2019-Feb-17 09:30N 32°55' W 117°52'713.5
2019-Feb-17 09:00N 32°48' W 117°50'713.6
2019-Feb-17 08:31N 32°42' W 117°48'713.9
2019-Feb-17 08:00N 32°35' W 117°45'714.0
2019-Feb-17 07:30N 32°29' W 117°42'714.3
2019-Feb-17 07:00N 32°23' W 117°38'714.7
2019-Feb-17 06:30N 32°17' W 117°32'32 1.6
2019-Feb-16 11:00N 31°54' W 117°06'1717.8 300 / 201024.210.8 16.0 8.816.0
2019-Feb-16 10:02N 32°04' W 117°22'011.5
2019-Feb-16 10:01N 32°05' W 117°22'611.1
2019-Feb-16 09:30N 32°08' W 117°27'510.7
2019-Feb-16 09:00N 32°12' W 117°32'611.2
2019-Feb-16 08:31N 32°15' W 117°37'612.2
2019-Feb-16 08:00N 32°21' W 117°41'713.4
2019-Feb-16 07:30N 32°27' W 117°43'713.1
2019-Feb-16 07:00N 32°33' W 117°45'510.1
2019-Feb-16 06:30N 32°38' W 117°46'5 9.4
2019-Feb-16 06:00N 32°43' W 117°46'5 9.3
2019-Feb-16 05:30N 32°48' W 117°46'4 8.5
2019-Feb-16 05:00N 32°52' W 117°48'5 9.7
2019-Feb-16 04:30N 32°54' W 117°53'5 9.2
2019-Feb-16 04:01N 32°56' W 117°57'4 7.1
2019-Feb-16 03:30N 32°57' W 118°02'4 7.6
2019-Feb-16 03:00N 32°53' W 117°60'3 6.6
2019-Feb-16 02:31N 32°53' W 117°56'3 6.9
2019-Feb-16 02:01N 32°53' W 117°52'3 6.1
2019-Feb-16 01:31N 32°55' W 117°48'3 6.8
2019-Feb-16 01:01N 32°58' W 117°49'3 6.6
2019-Feb-16 00:31N 33°01' W 117°50'3 6.7
2019-Feb-16 00:00N 33°05' W 117°50'2173.9
2019-Feb-16 00:00N 33°06' W 117°48'3 6.0 190 / 91021.227.0 14.0 8.5
2019-Feb-15 23:30N 33°08' W 117°50'3 6.5
2019-Feb-15 23:00N 33°11' W 117°52'4 8.7
2019-Feb-15 22:30N 33°11' W 117°57'5 9.6
2019-Feb-15 22:00N 33°09' W 118°02'4 7.2
2019-Feb-15 21:30N 33°06' W 118°04'4 7.4
2019-Feb-15 21:01N 33°02' W 118°04'4 7.5
2019-Feb-15 20:30N 32°58' W 118°04'4 7.6
2019-Feb-15 20:01N 32°55' W 118°04'4 7.1
2019-Feb-15 19:31N 32°53' W 118°00'4 7.3
2019-Feb-15 19:00N 32°52' W 117°56'4 7.5
2019-Feb-15 18:31N 32°52' W 117°51'3 6.9
2019-Feb-15 18:00N 32°54' W 117°48'3 6.9
2019-Feb-15 17:30N 32°57' W 117°45'4 7.2
2019-Feb-15 17:01N 33°00' W 117°47'4 7.1
2019-Feb-15 16:30N 33°03' W 117°48'4 7.1
2019-Feb-15 16:01N 33°07' W 117°50'3 6.8
2019-Feb-15 15:31N 33°09' W 117°53'4 7.7
2019-Feb-15 15:00N 33°09' W 117°57'4 7.8
2019-Feb-15 14:30N 33°09' W 118°02'3 5.7
2019-Feb-15 14:01N 33°07' W 118°04'3 6.9
2019-Feb-15 13:30N 33°04' W 118°04'3 6.8
2019-Feb-15 13:00N 33°00' W 118°04'3 6.9
2019-Feb-15 12:30N 32°57' W 118°04'3 6.9
2019-Feb-15 12:00N 32°56' W 117°60'3 6.7
2019-Feb-15 11:30N 32°55' W 117°56'4 7.2
2019-Feb-15 11:00N 32°55' W 117°52'3 6.9
2019-Feb-15 10:30N 32°52' W 117°50'3 6.3
2019-Feb-15 10:01N 32°52' W 117°46'4 7.2
2019-Feb-15 09:31N 32°55' W 117°47'4 7.2
2019-Feb-15 09:00N 32°59' W 117°47'3 6.6
2019-Feb-15 08:31N 33°02' W 117°47'4 6.9
2019-Feb-15 08:00N 33°05' W 117°50'4 7.1
2019-Feb-15 07:30N 33°08' W 117°52'4 7.1
2019-Feb-15 07:01N 33°10' W 117°55'4 8.0
2019-Feb-15 06:31N 33°13' W 117°59'5 9.3
2019-Feb-15 06:01N 33°16' W 118°03'4 9.0
2019-Feb-15 05:31N 33°20' W 118°06'5 9.2
2019-Feb-15 05:00N 33°24' W 118°08'5 9.5
2019-Feb-15 04:30N 33°29' W 118°10'5 9.4
2019-Feb-15 04:00N 33°33' W 118°12'4 8.6
2019-Feb-15 03:30N 33°37' W 118°13'4 8.3
2019-Feb-15 03:00N 33°41' W 118°11'4 7.3
2019-Feb-15 02:28N 33°45' W 118°11'0 0.1
2019-Feb-15 01:58N 33°45' W 118°11'0 0.0
2019-Feb-15 01:28N 33°45' W 118°11'0 0.0
2019-Feb-15 00:58N 33°45' W 118°11'0 0.0
2019-Feb-15 00:30N 33°45' W 118°11'0 0.0
2019-Feb-14 23:57N 33°45' W 118°11'0 0.0
2019-Feb-14 23:24N 33°45' W 118°11'0 0.0
2019-Feb-14 23:00N 33°45' W 118°11'0 0.0
2019-Feb-14 22:27N 33°45' W 118°11'0 0.0
2019-Feb-14 21:59N 33°45' W 118°11'0 0.0
2019-Feb-14 21:29N 33°45' W 118°11'0 0.0
2019-Feb-14 20:59N 33°45' W 118°11'0 0.0
2019-Feb-14 20:23N 33°45' W 118°11'0 0.0
2019-Feb-14 19:46N 33°45' W 118°11'0 0.0
2019-Feb-14 19:28N 33°45' W 118°11'0 0.0
2019-Feb-14 18:52N 33°45' W 118°11'0 0.0
2019-Feb-14 18:28N 33°45' W 118°11'0 0.0
2019-Feb-14 17:46N 33°45' W 118°11'0 0.0
2019-Feb-14 17:27N 33°45' W 118°11'0 0.0
2019-Feb-14 17:00N 33°45' W 118°11'0 0.0
2019-Feb-14 16:18N 33°45' W 118°11'0 0.0
2019-Feb-14 16:00N 33°45' W 118°11'0 0.0
2019-Feb-14 15:27N 33°45' W 118°11'0 0.0
2019-Feb-14 14:53N 33°45' W 118°11'0 0.0
2019-Feb-14 14:26N 33°45' W 118°11'0 0.0
2019-Feb-14 14:00N 33°45' W 118°11'0 0.7
2019-Feb-14 13:30N 33°45' W 118°11'3 6.8
2019-Feb-14 13:00N 33°41' W 118°10'3 6.5
2019-Feb-14 12:30N 33°38' W 118°10'3 6.2
2019-Feb-14 12:00N 33°35' W 118°09'3 6.0
2019-Feb-14 11:30N 33°32' W 118°08'3 5.8
2019-Feb-14 11:00N 33°30' W 118°07'3 6.4
2019-Feb-14 10:30N 33°27' W 118°06'3 6.4
2019-Feb-14 10:00N 33°24' W 118°04'3 6.4
2019-Feb-14 09:30N 33°21' W 118°03'3 6.5
2019-Feb-14 09:00N 33°18' W 118°02'3 6.3
2019-Feb-14 08:30N 33°15' W 117°60'3 6.4
2019-Feb-14 08:00N 33°12' W 117°58'3 6.6
2019-Feb-14 07:30N 33°09' W 117°57'3 6.8
2019-Feb-14 07:00N 33°05' W 117°56'4 7.5
2019-Feb-14 06:30N 33°02' W 117°54'3 6.9
2019-Feb-14 06:00N 32°59' W 117°52'3 6.9
2019-Feb-14 05:30N 32°56' W 117°51'3 6.8
2019-Feb-14 05:00N 32°53' W 117°50'4 7.1
2019-Feb-14 04:30N 32°49' W 117°49'4 7.4
2019-Feb-14 04:00N 32°45' W 117°48'7 7.3
2019-Feb-14 03:00N 32°38' W 117°47'4 7.3
2019-Feb-14 02:30N 32°35' W 117°45'4 7.7
2019-Feb-14 02:00N 32°31' W 117°43'10617.2
2019-Feb-14 02:00N 32°24' W 117°36'510.7 130 / 211013.2 5.4 13.013.016.0
2019-Feb-14 01:30N 32°27' W 117°41'510.1
2019-Feb-14 01:00N 32°23' W 117°38'4 7.5
2019-Feb-14 00:26N 32°19' W 117°36'3 7.0
2019-Feb-13 23:56N 32°16' W 117°33'19 5.3
2019-Feb-13 20:22N 31°58' W 117°30'2 6.7
2019-Feb-13 20:00N 31°56' W 117°33'3 6.8
2019-Feb-13 19:30N 31°54' W 117°36'3 7.0
2019-Feb-13 19:00N 31°52' W 117°39'3 7.0
2019-Feb-13 18:30N 31°50' W 117°42'4 8.0
2019-Feb-13 18:00N 31°47' W 117°46'4 7.8
2019-Feb-13 17:30N 31°45' W 117°50'4 7.6
2019-Feb-13 16:58N 31°42' W 117°53'4 7.9
2019-Feb-13 16:28N 31°41' W 117°58'3 6.9
2019-Feb-13 16:00N 31°41' W 118°01'3 6.9
2019-Feb-13 15:30N 31°42' W 118°05'3 6.6
2019-Feb-13 15:00N 31°43' W 118°09'3 5.3
2019-Feb-13 14:29N 31°43' W 118°12'3 7.2
2019-Feb-13 14:00N 31°39' W 118°12'6 6.4
2019-Feb-13 13:06N 31°33' W 118°10'1 6.7
2019-Feb-13 13:00N 31°33' W 118°10'4 6.8
2019-Feb-13 12:25N 31°34' W 118°05'3 6.6
2019-Feb-13 12:00N 31°34' W 118°02'7 6.5
2019-Feb-13 10:58N 31°35' W 117°54'  
Track history (hours):
 
Tides and Currents Weather Stations Pressure Air Temp Water Temp Dewpoint Dewpoint Depression Visibility Wind Speed Wind Dir Waves Ship Positions

Imagination

Operator: Carnival Cruise Lines

Last reported at 2019-Feb-23 10:52 UTC. Time now 2019-Feb-23 17:38 UTC.
Position N 32°03' W 117°17'.

Type: Ship. MMSI: 309933000.

Date/timePositionNaut miles runAvg speedWind from/ knotsBaromVisibWave heightAir tempDewpointWater temp
2019-Feb-23 10:52N 32°03' W 117°17'410.0
2019-Feb-23 10:30N 32°05' W 117°20'510.0
2019-Feb-23 10:00N 32°09' W 117°24'5 9.7
2019-Feb-23 09:30N 32°12' W 117°29'5 9.5
2019-Feb-23 09:00N 32°15' W 117°33'5 9.4
2019-Feb-23 08:30N 32°18' W 117°37'4 8.9
2019-Feb-23 08:00N 32°22' W 117°39'5 9.3
2019-Feb-23 07:30N 32°26' W 117°42'5 9.2
2019-Feb-23 07:01N 32°30' W 117°45'510.4
2019-Feb-23 06:30N 32°35' W 117°48'4 8.2
2019-Feb-23 06:00N 32°38' W 117°50'4 7.2
2019-Feb-23 05:30N 32°40' W 117°53'4 7.3
2019-Feb-23 05:00N 32°42' W 117°57'4 7.1
2019-Feb-23 04:30N 32°45' W 117°59'4 8.7
2019-Feb-23 04:00N 32°50' W 117°59'4 7.9
2019-Feb-23 03:31N 32°52' W 117°55'4 7.4
2019-Feb-23 03:00N 32°51' W 117°51'4 8.0
2019-Feb-23 02:30N 32°49' W 117°46'4 7.9
2019-Feb-23 02:01N 32°47' W 117°43'4 8.2
2019-Feb-23 01:31N 32°45' W 117°38'5 9.8
2019-Feb-23 01:01N 32°49' W 117°41'816.8
2019-Feb-23 00:30N 32°54' W 117°49'4 8.4
2019-Feb-23 00:00N 32°57' W 117°53'4 7.8
2019-Feb-22 23:30N 33°01' W 117°53'3 6.7
2019-Feb-22 23:00N 33°04' W 117°55'4 8.6
2019-Feb-22 22:30N 33°04' W 118°00'4 8.4
2019-Feb-22 22:00N 33°04' W 118°05'3 6.6
2019-Feb-22 21:30N 33°02' W 118°08'4 7.7
2019-Feb-22 21:00N 32°58' W 118°07'4 7.6
2019-Feb-22 20:30N 32°55' W 118°05'4 7.8
2019-Feb-22 20:00N 32°51' W 118°03'4 7.8
2019-Feb-22 19:30N 32°48' W 118°01'4 7.8
2019-Feb-22 19:00N 32°44' W 117°59'4 7.8
2019-Feb-22 18:30N 32°41' W 117°56'4 8.1
2019-Feb-22 18:00N 32°38' W 117°53'4 8.0
2019-Feb-22 17:30N 32°35' W 117°50'4 8.1
2019-Feb-22 17:00N 32°32' W 117°46'4 8.0
2019-Feb-22 16:30N 32°29' W 117°44'4 8.0
2019-Feb-22 16:00N 32°25' W 117°42'4 7.7
2019-Feb-22 15:30N 32°22' W 117°40'3 6.9
2019-Feb-22 15:00N 32°19' W 117°37'3 5.0
2019-Feb-22 14:30N 32°22' W 117°37'4 7.4
2019-Feb-22 14:00N 32°25' W 117°40'4 7.4
2019-Feb-22 13:30N 32°27' W 117°43'4 7.4
2019-Feb-22 13:00N 32°30' W 117°46'3 6.2
2019-Feb-22 12:30N 32°33' W 117°47'3 6.2
2019-Feb-22 12:00N 32°36' W 117°47'4 7.6
2019-Feb-22 11:30N 32°39' W 117°49'4 7.5
2019-Feb-22 11:00N 32°43' W 117°50'4 7.3
2019-Feb-22 10:30N 32°46' W 117°51'4 7.2
2019-Feb-22 10:00N 32°50' W 117°52'4 7.2
2019-Feb-22 09:30N 32°52' W 117°55'4 7.3
2019-Feb-22 09:00N 32°56' W 117°56'4 7.4
2019-Feb-22 08:30N 32°60' W 117°57'4 7.4
2019-Feb-22 08:00N 33°03' W 117°59'4 7.4
2019-Feb-22 07:30N 33°06' W 118°00'4 7.8
2019-Feb-22 07:00N 33°10' W 118°02'4 8.0
2019-Feb-22 06:30N 33°14' W 118°04'4 8.3
2019-Feb-22 06:00N 33°18' W 118°06'4 8.5
2019-Feb-22 05:30N 33°22' W 118°07'4 8.7
2019-Feb-22 05:00N 33°26' W 118°09'4 8.9
2019-Feb-22 04:30N 33°30' W 118°11'4 8.9
2019-Feb-22 04:00N 33°34' W 118°13'4 8.7
2019-Feb-22 03:30N 33°38' W 118°12'4 8.7
2019-Feb-22 03:00N 33°43' W 118°11'2 4.4
2019-Feb-22 02:29N 33°45' W 118°11'0 0.0
2019-Feb-22 01:56N 33°45' W 118°11'0 0.0
2019-Feb-22 01:29N 33°45' W 118°11'0 0.0
2019-Feb-22 00:58N 33°45' W 118°11'0 0.0
2019-Feb-22 00:28N 33°45' W 118°11'0 0.0
2019-Feb-21 23:43N 33°45' W 118°11'0 0.0
2019-Feb-21 23:22N 33°45' W 118°11'0 0.0
2019-Feb-21 22:58N 33°45' W 118°11'0 0.0
2019-Feb-21 22:27N 33°45' W 118°11'0 0.0
2019-Feb-21 22:00N 33°45' W 118°11'0 0.0
2019-Feb-21 21:27N 33°45' W 118°11'0 0.0
2019-Feb-21 20:57N 33°45' W 118°11'0 0.0
2019-Feb-21 20:30N 33°45' W 118°11'0 0.0
2019-Feb-21 19:59N 33°45' W 118°11'0 0.0
2019-Feb-21 19:29N 33°45' W 118°11'0 0.0
2019-Feb-21 18:59N 33°45' W 118°11'0 0.0
2019-Feb-21 18:29N 33°45' W 118°11'0 0.0
2019-Feb-21 17:46N 33°45' W 118°11'0 0.0
2019-Feb-21 17:28N 33°45' W 118°11'0 0.0
2019-Feb-21 16:55N 33°45' W 118°11'0 0.0
2019-Feb-21 16:28N 33°45' W 118°11'0 0.0
2019-Feb-21 15:58N 33°45' W 118°11'0 0.0
2019-Feb-21 15:30N 33°45' W 118°11'0 0.0
2019-Feb-21 15:00N 33°45' W 118°11'0 0.0
2019-Feb-21 14:30N 33°45' W 118°11'0 0.0
2019-Feb-21 14:00N 33°45' W 118°11'0 0.7
2019-Feb-21 13:30N 33°45' W 118°11'3 5.6
2019-Feb-21 13:01N 33°42' W 118°11'4 8.5
2019-Feb-21 12:30N 33°38' W 118°10'4 7.9
2019-Feb-21 12:00N 33°34' W 118°09'3 6.9
2019-Feb-21 11:30N 33°31' W 118°08'4 7.6
2019-Feb-21 11:01N 33°27' W 118°06'3 6.9
2019-Feb-21 10:30N 33°24' W 118°04'4 7.1
2019-Feb-21 10:00N 33°21' W 118°03'3 7.0
2019-Feb-21 09:31N 33°17' W 118°01'4 7.1
2019-Feb-21 09:00N 33°14' W 117°60'4 7.1
2019-Feb-21 08:30N 33°11' W 117°58'4 7.1
2019-Feb-21 08:00N 33°08' W 117°56'4 7.0
2019-Feb-21 07:30N 33°05' W 117°53'3 6.9
2019-Feb-21 07:00N 33°02' W 117°53'4 7.3
2019-Feb-21 06:30N 32°58' W 117°52'4 7.2
2019-Feb-21 06:00N 32°55' W 117°50'4 7.1
2019-Feb-21 05:30N 32°51' W 117°50'4 7.3
2019-Feb-21 05:00N 32°48' W 117°49'4 7.2
2019-Feb-21 04:31N 32°44' W 117°49'4 7.4
2019-Feb-21 03:59N 32°40' W 117°48'4 7.3
2019-Feb-21 03:30N 32°37' W 117°47'4 7.4
2019-Feb-21 03:00N 32°33' W 117°46'4 8.4
2019-Feb-21 02:30N 32°29' W 117°45'5 9.3
2019-Feb-21 02:00N 32°25' W 117°43'4 8.7
2019-Feb-21 01:30N 32°21' W 117°41'3 7.1
2019-Feb-21 01:00N 32°18' W 117°39'4 6.9
2019-Feb-21 00:28N 32°15' W 117°36'13 9.1
2019-Feb-20 23:00N 32°06' W 117°24'8 0.2 290 / 201024.210.8 12.0 3.816.0
2019-Feb-19 10:54N 32°01' W 117°17'3 8.7
2019-Feb-19 10:30N 32°04' W 117°20'4 8.8
2019-Feb-19 10:00N 32°06' W 117°24'4 8.7
2019-Feb-19 09:30N 32°09' W 117°27'4 8.8
2019-Feb-19 09:01N 32°12' W 117°31'4 8.8
2019-Feb-19 08:30N 32°15' W 117°35'5 9.4
2019-Feb-19 08:01N 32°19' W 117°39'5 9.2
2019-Feb-19 07:31N 32°23' W 117°42'5 9.4
2019-Feb-19 07:01N 32°27' W 117°44'510.3
2019-Feb-19 06:30N 32°32' W 117°46'510.1
2019-Feb-19 06:00N 32°37' W 117°48'5 9.2
2019-Feb-19 05:31N 32°41' W 117°49'5 9.3
2019-Feb-19 05:00N 32°46' W 117°49'5 9.5
2019-Feb-19 04:31N 32°50' W 117°49'5 9.6
2019-Feb-19 04:01N 32°55' W 117°52'5 9.6
2019-Feb-19 03:30N 32°59' W 117°55'510.0
2019-Feb-19 03:01N 33°03' W 117°59'510.4
2019-Feb-19 02:30N 33°07' W 118°03'510.6
2019-Feb-19 02:01N 33°11' W 118°07'510.1
2019-Feb-19 01:30N 33°15' W 118°11'5 9.9
2019-Feb-19 01:01N 33°18' W 118°15'4 8.6
2019-Feb-19 00:30N 33°21' W 118°18'0 0.6
2019-Feb-18 23:59N 33°21' W 118°19'0 0.0
2019-Feb-18 23:25N 33°21' W 118°19'0 0.0
2019-Feb-18 22:58N 33°21' W 118°19'0 0.0
2019-Feb-18 22:28N 33°21' W 118°19'0 0.0
2019-Feb-18 21:58N 33°21' W 118°19'0 0.0
2019-Feb-18 21:28N 33°21' W 118°19'0 0.0
2019-Feb-18 21:00N 33°21' W 118°19'0 0.0
2019-Feb-18 20:30N 33°21' W 118°19'0 0.0
2019-Feb-18 20:00N 33°21' W 118°19'0 0.0
2019-Feb-18 19:30N 33°21' W 118°19'0 0.1
2019-Feb-18 19:00N 33°21' W 118°19'0 0.2
2019-Feb-18 18:20N 33°21' W 118°19'0 0.1
2019-Feb-18 17:59N 33°21' W 118°19'0 0.0
2019-Feb-18 17:26N 33°21' W 118°19'0 0.0
2019-Feb-18 16:59N 33°21' W 118°19'0 0.0
2019-Feb-18 16:28N 33°21' W 118°19'0 0.1
2019-Feb-18 15:55N 33°21' W 118°19'0 0.2
2019-Feb-18 15:30N 33°21' W 118°19'0 0.1
2019-Feb-18 15:00N 33°21' W 118°19'3 5.0
2019-Feb-18 14:30N 33°19' W 118°17'3 7.0
2019-Feb-18 14:00N 33°16' W 118°15'3 6.6
2019-Feb-18 13:30N 33°13' W 118°13'3 6.9
2019-Feb-18 13:00N 33°10' W 118°11'3 6.9
2019-Feb-18 12:30N 33°07' W 118°09'3 6.8
2019-Feb-18 12:00N 33°04' W 118°06'3 6.8
2019-Feb-18 11:30N 33°02' W 118°04'3 6.9
2019-Feb-18 11:01N 32°59' W 118°02'5297.4
2019-Feb-18 11:00N 32°54' W 118°00'2 3.4 300 / 301024.210.8 14.0 8.515.0
2019-Feb-18 10:30N 32°56' W 118°00'3 6.8
2019-Feb-18 10:00N 32°53' W 117°58'3 5.8
2019-Feb-18 09:30N 32°52' W 117°55'3 6.7
2019-Feb-18 09:00N 32°55' W 117°53'4 8.0
2019-Feb-18 08:31N 32°59' W 117°54'4 8.2
2019-Feb-18 08:00N 33°03' W 117°55'4 8.4
2019-Feb-18 07:31N 33°06' W 117°57'4 8.3
2019-Feb-18 07:00N 33°10' W 118°00'4 8.6
2019-Feb-18 06:31N 33°13' W 118°03'5 9.3
2019-Feb-18 06:01N 33°17' W 118°07'5 9.6
2019-Feb-18 05:30N 33°21' W 118°10'5 9.8
2019-Feb-18 05:00N 33°25' W 118°13'5 9.6
2019-Feb-18 04:30N 33°29' W 118°17'5 9.6
2019-Feb-18 04:00N 33°33' W 118°18'510.9
2019-Feb-18 03:31N 33°38' W 118°13'510.5
2019-Feb-18 03:00N 33°43' W 118°11'3 4.0
2019-Feb-18 02:23N 33°45' W 118°11'0 0.0
2019-Feb-18 01:59N 33°45' W 118°11'0 0.0
2019-Feb-18 01:20N 33°45' W 118°11'0 0.0
2019-Feb-18 00:59N 33°45' W 118°11'0 0.0
2019-Feb-18 00:25N 33°45' W 118°11'0 0.0
2019-Feb-17 23:49N 33°45' W 118°11'0 0.0
2019-Feb-17 23:25N 33°45' W 118°11'0 0.0
2019-Feb-17 22:58N 33°45' W 118°11'0 0.0
2019-Feb-17 22:27N 33°45' W 118°11'0 0.0
2019-Feb-17 22:00N 33°45' W 118°11'0 0.0
2019-Feb-17 21:03N 33°45' W 118°11'0 0.0
2019-Feb-17 20:48N 33°45' W 118°11'0 0.0
2019-Feb-17 20:30N 33°45' W 118°11'0 0.0
2019-Feb-17 19:56N 33°45' W 118°11'0 0.0
2019-Feb-17 19:23N 33°45' W 118°11'0 0.0
2019-Feb-17 18:59N 33°45' W 118°11'0 0.0
2019-Feb-17 18:26N 33°45' W 118°11'0 0.0
2019-Feb-17 17:52N 33°45' W 118°11'0 0.0
2019-Feb-17 17:25N 33°45' W 118°11'0 0.0
2019-Feb-17 16:58N 33°45' W 118°11'0 0.0
2019-Feb-17 16:28N 33°45' W 118°11'0 0.0
2019-Feb-17 15:58N 33°45' W 118°11'0 0.0
2019-Feb-17 15:30N 33°45' W 118°11'0 0.0
2019-Feb-17 14:45N 33°45' W 118°11'0 0.0
2019-Feb-17 14:27N 33°45' W 118°11'0 0.3
2019-Feb-17 14:00N 33°45' W 118°11'2 3.1
2019-Feb-17 13:30N 33°43' W 118°11'5 9.2
2019-Feb-17 13:00N 33°39' W 118°10'611.9
2019-Feb-17 12:30N 33°33' W 118°09'5 9.9
2019-Feb-17 12:00N 33°28' W 118°07'714.4
2019-Feb-17 11:30N 33°22' W 118°04'714.7
2019-Feb-17 11:00N 33°15' W 118°00'714.5
2019-Feb-17 10:30N 33°08' W 117°57'714.0
2019-Feb-17 10:00N 33°01' W 117°55'713.8
2019-Feb-17 09:30N 32°55' W 117°52'713.5
2019-Feb-17 09:00N 32°48' W 117°50'713.6
2019-Feb-17 08:31N 32°42' W 117°48'713.9
2019-Feb-17 08:00N 32°35' W 117°45'714.0
2019-Feb-17 07:30N 32°29' W 117°42'714.3
2019-Feb-17 07:00N 32°23' W 117°38'714.7
2019-Feb-17 06:30N 32°17' W 117°32'32 1.6
2019-Feb-16 11:00N 31°54' W 117°06'1717.8 300 / 201024.210.8 16.0 8.816.0
2019-Feb-16 10:02N 32°04' W 117°22'011.5
2019-Feb-16 10:01N 32°05' W 117°22'611.1
2019-Feb-16 09:30N 32°08' W 117°27'510.7
2019-Feb-16 09:00N 32°12' W 117°32'611.2
2019-Feb-16 08:31N 32°15' W 117°37'612.2
2019-Feb-16 08:00N 32°21' W 117°41'713.4
2019-Feb-16 07:30N 32°27' W 117°43'713.1
2019-Feb-16 07:00N 32°33' W 117°45'510.1
2019-Feb-16 06:30N 32°38' W 117°46'5 9.4
2019-Feb-16 06:00N 32°43' W 117°46'5 9.3
2019-Feb-16 05:30N 32°48' W 117°46'4 8.5
2019-Feb-16 05:00N 32°52' W 117°48'5 9.7
2019-Feb-16 04:30N 32°54' W 117°53'5 9.2
2019-Feb-16 04:01N 32°56' W 117°57'4 7.1
2019-Feb-16 03:30N 32°57' W 118°02'4 7.6
2019-Feb-16 03:00N 32°53' W 117°60'3 6.6
2019-Feb-16 02:31N 32°53' W 117°56'3 6.9
2019-Feb-16 02:01N 32°53' W 117°52'3 6.1
2019-Feb-16 01:31N 32°55' W 117°48'3 6.8
2019-Feb-16 01:01N 32°58' W 117°49'3 6.6
2019-Feb-16 00:31N 33°01' W 117°50'3 6.7
2019-Feb-16 00:00N 33°05' W 117°50'2173.9
2019-Feb-16 00:00N 33°06' W 117°48'3 6.0 190 / 91021.227.0 14.0 8.5
2019-Feb-15 23:30N 33°08' W 117°50'3 6.5
2019-Feb-15 23:00N 33°11' W 117°52'4 8.7
2019-Feb-15 22:30N 33°11' W 117°57'5 9.6
2019-Feb-15 22:00N 33°09' W 118°02'4 7.2
2019-Feb-15 21:30N 33°06' W 118°04'4 7.4
2019-Feb-15 21:01N 33°02' W 118°04'4 7.5
2019-Feb-15 20:30N 32°58' W 118°04'4 7.6
2019-Feb-15 20:01N 32°55' W 118°04'4 7.1
2019-Feb-15 19:31N 32°53' W 118°00'4 7.3
2019-Feb-15 19:00N 32°52' W 117°56'4 7.5
2019-Feb-15 18:31N 32°52' W 117°51'3 6.9
2019-Feb-15 18:00N 32°54' W 117°48'3 6.9
2019-Feb-15 17:30N 32°57' W 117°45'4 7.2
2019-Feb-15 17:01N 33°00' W 117°47'4 7.1
2019-Feb-15 16:30N 33°03' W 117°48'4 7.1
2019-Feb-15 16:01N 33°07' W 117°50'3 6.8
2019-Feb-15 15:31N 33°09' W 117°53'4 7.7
2019-Feb-15 15:00N 33°09' W 117°57'4 7.8
2019-Feb-15 14:30N 33°09' W 118°02'3 5.7
2019-Feb-15 14:01N 33°07' W 118°04'3 6.9
2019-Feb-15 13:30N 33°04' W 118°04'3 6.8
2019-Feb-15 13:00N 33°00' W 118°04'3 6.9
2019-Feb-15 12:30N 32°57' W 118°04'3 6.9
2019-Feb-15 12:00N 32°56' W 117°60'3 6.7
2019-Feb-15 11:30N 32°55' W 117°56'4 7.2
2019-Feb-15 11:00N 32°55' W 117°52'3 6.9
2019-Feb-15 10:30N 32°52' W 117°50'3 6.3
2019-Feb-15 10:01N 32°52' W 117°46'4 7.2
2019-Feb-15 09:31N 32°55' W 117°47'4 7.2
2019-Feb-15 09:00N 32°59' W 117°47'3 6.6
2019-Feb-15 08:31N 33°02' W 117°47'4 6.9
2019-Feb-15 08:00N 33°05' W 117°50'4 7.1
2019-Feb-15 07:30N 33°08' W 117°52'4 7.1
2019-Feb-15 07:01N 33°10' W 117°55'4 8.0
2019-Feb-15 06:31N 33°13' W 117°59'5 9.3
2019-Feb-15 06:01N 33°16' W 118°03'4 9.0
2019-Feb-15 05:31N 33°20' W 118°06'5 9.2
2019-Feb-15 05:00N 33°24' W 118°08'5 9.5
2019-Feb-15 04:30N 33°29' W 118°10'5 9.4
2019-Feb-15 04:00N 33°33' W 118°12'4 8.6
2019-Feb-15 03:30N 33°37' W 118°13'4 8.3
2019-Feb-15 03:00N 33°41' W 118°11'4 7.3
2019-Feb-15 02:28N 33°45' W 118°11'0 0.1
2019-Feb-15 01:58N 33°45' W 118°11'0 0.0
2019-Feb-15 01:28N 33°45' W 118°11'0 0.0
2019-Feb-15 00:58N 33°45' W 118°11'0 0.0
2019-Feb-15 00:30N 33°45' W 118°11'0 0.0
2019-Feb-14 23:57N 33°45' W 118°11'0 0.0
2019-Feb-14 23:24N 33°45' W 118°11'0 0.0
2019-Feb-14 23:00N 33°45' W 118°11'0 0.0
2019-Feb-14 22:27N 33°45' W 118°11'0 0.0
2019-Feb-14 21:59N 33°45' W 118°11'0 0.0
2019-Feb-14 21:29N 33°45' W 118°11'0 0.0
2019-Feb-14 20:59N 33°45' W 118°11'0 0.0
2019-Feb-14 20:23N 33°45' W 118°11'0 0.0
2019-Feb-14 19:46N 33°45' W 118°11'0 0.0
2019-Feb-14 19:28N 33°45' W 118°11'0 0.0
2019-Feb-14 18:52N 33°45' W 118°11'0 0.0
2019-Feb-14 18:28N 33°45' W 118°11'0 0.0
2019-Feb-14 17:46N 33°45' W 118°11'0 0.0
2019-Feb-14 17:27N 33°45' W 118°11'0 0.0
2019-Feb-14 17:00N 33°45' W 118°11'0 0.0
2019-Feb-14 16:18N 33°45' W 118°11'0 0.0
2019-Feb-14 16:00N 33°45' W 118°11'0 0.0
2019-Feb-14 15:27N 33°45' W 118°11'0 0.0
2019-Feb-14 14:53N 33°45' W 118°11'0 0.0
2019-Feb-14 14:26N 33°45' W 118°11'0 0.0
2019-Feb-14 14:00N 33°45' W 118°11'0 0.7
2019-Feb-14 13:30N 33°45' W 118°11'3 6.8
2019-Feb-14 13:00N 33°41' W 118°10'3 6.5
2019-Feb-14 12:30N 33°38' W 118°10'3 6.2
2019-Feb-14 12:00N 33°35' W 118°09'3 6.0
2019-Feb-14 11:30N 33°32' W 118°08'3 5.8
2019-Feb-14 11:00N 33°30' W 118°07'3 6.4
2019-Feb-14 10:30N 33°27' W 118°06'3 6.4
2019-Feb-14 10:00N 33°24' W 118°04'3 6.4
2019-Feb-14 09:30N 33°21' W 118°03'3 6.5
2019-Feb-14 09:00N 33°18' W 118°02'3 6.3
2019-Feb-14 08:30N 33°15' W 117°60'3 6.4
2019-Feb-14 08:00N 33°12' W 117°58'3 6.6
2019-Feb-14 07:30N 33°09' W 117°57'3 6.8
2019-Feb-14 07:00N 33°05' W 117°56'4 7.5
2019-Feb-14 06:30N 33°02' W 117°54'3 6.9
2019-Feb-14 06:00N 32°59' W 117°52'3 6.9
2019-Feb-14 05:30N 32°56' W 117°51'3 6.8
2019-Feb-14 05:00N 32°53' W 117°50'4 7.1
2019-Feb-14 04:30N 32°49' W 117°49'4 7.4
2019-Feb-14 04:00N 32°45' W 117°48'7 7.3
2019-Feb-14 03:00N 32°38' W 117°47'4 7.3
2019-Feb-14 02:30N 32°35' W 117°45'4 7.7
2019-Feb-14 02:00N 32°31' W 117°43'10617.2
2019-Feb-14 02:00N 32°24' W 117°36'510.7 130 / 211013.2 5.4 13.013.016.0
2019-Feb-14 01:30N 32°27' W 117°41'510.1
2019-Feb-14 01:00N 32°23' W 117°38'4 7.5
2019-Feb-14 00:26N 32°19' W 117°36'3 7.0
2019-Feb-13 23:56N 32°16' W 117°33'19 5.3
2019-Feb-13 20:22N 31°58' W 117°30'2 6.7
2019-Feb-13 20:00N 31°56' W 117°33'3 6.8
2019-Feb-13 19:30N 31°54' W 117°36'3 7.0
2019-Feb-13 19:00N 31°52' W 117°39'3 7.0
2019-Feb-13 18:30N 31°50' W 117°42'4 8.0
2019-Feb-13 18:00N 31°47' W 117°46'4 7.8
2019-Feb-13 17:30N 31°45' W 117°50'4 7.6
2019-Feb-13 16:58N 31°42' W 117°53'4 7.9
2019-Feb-13 16:28N 31°41' W 117°58'3 6.9
2019-Feb-13 16:00N 31°41' W 118°01'3 6.9
2019-Feb-13 15:30N 31°42' W 118°05'3 6.6
2019-Feb-13 15:00N 31°43' W 118°09'3 5.3
2019-Feb-13 14:29N 31°43' W 118°12'3 7.2
2019-Feb-13 14:00N 31°39' W 118°12'6 6.4
2019-Feb-13 13:06N 31°33' W 118°10'1 6.7
2019-Feb-13 13:00N 31°33' W 118°10'4 6.8
2019-Feb-13 12:25N 31°34' W 118°05'3 6.6
2019-Feb-13 12:00N 31°34' W 118°02'7 6.5
2019-Feb-13 10:58N 31°35' W 117°54'  

Dump ship's entire track history